Time;durP1;ratioP1;P1;durP2;ratioP2;P2;SDS_P1;SDS_P2;PMS_P1;PMS_P2;Temp;Humidity;BMP_temperature;BMP_pressure;BME280_temperature;BME280_humidity;BME280_pressure;Samples;Min_cycle;Max_cycle;Signal;HPM_P1;HPM_P2
2024/03/09 00:00:21;;;;;;;7.75;7.18;;;;;;;30.23;65.08;101029.59;5055733;28;66199;-31
2024/03/09 00:02:54;;;;;;;17.52;7.68;;;;;;;30.25;66.71;101030.19;5057099;28;69884;-34
2024/03/09 00:05:25;;;;;;;17.90;9.13;;;;;;;30.27;66.99;101028.09;5051656;28;66354;-32
2024/03/09 00:07:58;;;;;;;12.27;9.23;;;;;;;30.28;68.17;101035.19;5058450;28;72013;-31
2024/03/09 00:10:30;;;;;;;12.32;10.32;;;;;;;30.34;68.86;101035.38;5061385;28;65541;-31
2024/03/09 00:13:02;;;;;;;12.95;10.27;;;;;;;30.37;69.00;101032.22;5047135;28;70138;-31
2024/03/09 00:15:33;;;;;;;17.50;9.73;;;;;;;30.38;70.60;101045.56;5058554;28;66260;-31
2024/03/09 00:18:04;;;;;;;17.35;11.15;;;;;;;30.42;70.23;101051.38;5051869;28;70201;-32
2024/03/09 00:20:35;;;;;;;31.35;11.27;;;;;;;30.44;70.65;101054.72;5043494;28;65745;-32
2024/03/09 00:23:08;;;;;;;31.13;11.40;;;;;;;30.47;72.00;101051.56;5058218;28;70472;-32
2024/03/09 00:25:40;;;;;;;19.75;11.88;;;;;;;30.46;71.80;101063.44;5051919;28;65962;-31
2024/03/09 00:28:12;;;;;;;19.35;11.52;;;;;;;30.46;71.67;101067.00;5054880;28;69465;-32
2024/03/09 00:30:43;;;;;;;16.80;11.15;;;;;;;30.50;72.22;101073.63;5048780;28;66049;-32
2024/03/09 00:33:15;;;;;;;20.60;11.60;;;;;;;30.49;71.88;101073.84;5056115;28;70708;-32
2024/03/09 00:35:46;;;;;;;18.38;11.88;;;;;;;30.55;71.85;101072.16;5049082;28;65831;-32
2024/03/09 00:38:19;;;;;;;12.68;11.48;;;;;;;30.58;71.95;101072.56;5055959;28;70713;-32
2024/03/09 00:40:50;;;;;;;14.57;11.40;;;;;;;30.59;72.74;101076.94;5059973;28;65816;-32
2024/03/09 00:43:20;;;;;;;12.80;11.32;;;;;;;30.62;72.78;101084.66;5056769;28;70823;-31
2024/03/09 00:45:51;;;;;;;11.75;10.52;;;;;;;30.64;72.67;101087.94;5059080;28;65800;-31
2024/03/09 00:48:22;;;;;;;15.75;11.40;;;;;;;30.64;72.46;101096.06;5060449;28;70039;-31
2024/03/09 00:50:53;;;;;;;16.57;10.87;;;;;;;30.62;74.29;101094.63;5058165;28;65420;-32
2024/03/09 00:53:24;;;;;;;16.92;11.73;;;;;;;30.59;76.25;101106.75;5060287;28;69701;-31
2024/03/09 00:55:54;;;;;;;12.00;10.68;;;;;;;30.58;77.06;101107.75;5059670;28;65347;-30
2024/03/09 00:58:25;;;;;;;11.38;10.35;;;;;;;30.60;74.49;101108.38;5057135;28;69226;-31
2024/03/09 01:00:56;;;;;;;15.27;10.70;;;;;;;30.59;74.25;101112.16;5060144;28;66664;-32
2024/03/09 01:03:29;;;;;;;12.32;10.93;;;;;;;30.62;74.27;101122.56;5059964;28;70534;-32
2024/03/09 01:06:00;;;;;;;12.00;11.10;;;;;;;30.65;73.94;101122.13;5060162;28;66248;-31
2024/03/09 01:08:34;;;;;;;13.40;11.48;;;;;;;30.64;74.27;101114.19;5058617;28;70168;-34
2024/03/09 01:11:05;;;;;;;20.35;12.75;;;;;;;30.62;74.17;101117.13;5058571;28;66568;-31
2024/03/09 01:13:36;;;;;;;17.00;13.77;;;;;;;30.67;74.04;101111.91;5059243;28;69545;-32
2024/03/09 01:16:07;;;;;;;18.25;13.82;;;;;;;30.68;73.64;101116.28;5060278;28;66973;-31
2024/03/09 01:18:38;;;;;;;14.65;12.95;;;;;;;30.71;74.14;101133.97;5045187;28;69407;-31
2024/03/09 01:21:09;;;;;;;15.80;13.90;;;;;;;30.70;73.71;101133.16;5059422;28;65754;-32
2024/03/09 01:23:39;;;;;;;21.95;14.55;;;;;;;30.70;74.23;101135.84;5058667;28;69888;-30
2024/03/09 01:26:11;;;;;;;22.40;15.10;;;;;;;30.72;73.96;101141.03;5054647;28;65251;-32
2024/03/09 01:28:41;;;;;;;24.13;16.23;;;;;;;30.73;74.10;101145.44;5055303;28;71562;-31
2024/03/09 01:31:14;;;;;;;25.77;17.63;;;;;;;30.78;74.40;101147.47;5049558;28;65739;-31
2024/03/09 01:33:45;;;;;;;25.83;18.10;;;;;;;30.80;73.88;101156.28;5050127;28;70776;-32
2024/03/09 01:36:15;;;;;;;39.80;20.55;;;;;;;30.77;74.11;101151.25;5060537;28;65980;-32
2024/03/09 01:38:48;;;;;;;198.48;29.65;;;;;;;30.84;74.88;101152.06;5060020;28;69594;-32
2024/03/09 01:41:22;;;;;;;151.85;27.05;;;;;;;30.73;75.84;101142.72;5049533;28;66961;-30
2024/03/09 01:43:55;;;;;;;108.80;23.63;;;;;;;30.75;75.95;101158.75;5059723;28;69694;-30
2024/03/09 01:46:26;;;;;;;94.78;21.52;;;;;;;30.73;75.95;101157.09;5055873;28;66055;-32
2024/03/09 01:48:57;;;;;;;102.45;23.02;;;;;;;30.71;76.41;101159.19;5059513;28;70461;-34
2024/03/09 01:51:28;;;;;;;77.20;21.17;;;;;;;30.77;76.35;101157.50;5060440;28;66251;-32
2024/03/09 01:53:59;;;;;;;68.93;20.77;;;;;;;30.78;76.33;101152.91;5058864;28;69622;-31
2024/03/09 01:56:30;;;;;;;66.10;20.70;;;;;;;30.76;76.92;101168.53;5060065;28;65642;-31
2024/03/09 01:59:01;;;;;;;61.03;20.67;;;;;;;30.78;76.68;101169.16;5058940;28;70535;-30
2024/03/09 02:01:34;;;;;;;52.55;19.83;;;;;;;30.82;77.21;101165.03;5055702;28;66566;-33
2024/03/09 02:04:05;;;;;;;53.55;18.98;;;;;;;30.82;78.49;101170.44;5055975;28;70302;-32
2024/03/09 02:06:35;;;;;;;57.00;19.67;;;;;;;30.81;78.27;101174.16;5058354;28;66838;-33
2024/03/09 02:09:08;;;;;;;61.90;23.67;;;;;;;30.81;77.47;101176.88;5057658;28;70648;-31
2024/03/09 02:11:42;;;;;;;47.17;23.50;;;;;;;30.91;78.43;101179.97;5057453;28;66700;-32
2024/03/09 02:14:14;;;;;;;45.40;24.52;;;;;;;30.86;77.38;101179.78;5050247;28;69134;-32
2024/03/09 02:16:45;;;;;;;45.50;24.05;;;;;;;30.86;78.45;101168.94;5057120;28;65186;-31
2024/03/09 02:19:15;;;;;;;41.38;23.38;;;;;;;30.91;78.18;101175.38;5058435;28;70123;-31
2024/03/09 02:21:46;;;;;;;41.70;22.10;;;;;;;30.98;76.90;101179.94;5048780;28;66289;-32
2024/03/09 02:24:21;;;;;;;37.28;21.58;;;;;;;31.05;74.48;101175.34;5053253;28;69702;-32
2024/03/09 02:26:52;;;;;;;36.20;23.23;;;;;;;31.11;73.58;101175.31;5058606;28;66756;-34
2024/03/09 02:29:23;;;;;;;45.90;24.40;;;;;;;31.13;72.61;101175.09;5043501;28;70025;-32
2024/03/09 02:31:57;;;;;;;35.60;22.27;;;;;;;31.11;72.33;101174.47;5057119;28;67078;-31
2024/03/09 02:34:28;;;;;;;46.65;21.67;;;;;;;31.19;72.18;101168.81;5059083;28;68996;-31
2024/03/09 02:36:59;;;;;;;40.25;21.88;;;;;;;31.15;71.65;101160.31;5058161;28;65475;-30
2024/03/09 02:39:30;;;;;;;24.85;20.63;;;;;;;31.22;71.12;101154.00;5053833;28;69997;-31
2024/03/09 02:42:01;;;;;;;24.45;19.23;;;;;;;31.26;70.86;101166.06;5057912;28;67010;-32
2024/03/09 02:44:31;;;;;;;34.53;20.50;;;;;;;31.32;70.36;101165.22;5056903;28;70474;-31
2024/03/09 02:47:04;;;;;;;33.10;21.45;;;;;;;31.37;70.04;101162.69;5058155;28;65335;-32
2024/03/09 02:49:35;;;;;;;41.75;23.10;;;;;;;31.39;69.49;101158.72;5056593;28;68918;-30
2024/03/09 02:52:08;;;;;;;30.33;24.23;;;;;;;31.41;69.87;101155.00;5046092;28;67269;-31
2024/03/09 02:54:39;;;;;;;41.90;25.75;;;;;;;31.40;69.92;101159.59;5059655;28;70838;-33
2024/03/09 02:57:12;;;;;;;40.85;29.17;;;;;;;31.41;69.77;101144.16;5059349;28;66218;-31
2024/03/09 02:59:46;;;;;;;42.40;24.40;;;;;;;31.52;69.06;101146.16;5059171;28;69815;-32
2024/03/09 03:05:06;;;;;;;38.30;20.60;;;;;;;31.53;68.39;101148.63;5054046;28;69606;-31
2024/03/09 03:07:37;;;;;;;25.85;19.48;;;;;;;31.53;68.24;101140.50;5052118;28;66101;-31
2024/03/09 03:10:10;;;;;;;26.10;19.45;;;;;;;31.66;68.34;101138.75;5059703;28;70106;-31
2024/03/09 03:12:41;;;;;;;30.02;19.85;;;;;;;31.65;68.04;101132.53;5060641;28;66541;-32
2024/03/09 03:15:12;;;;;;;31.42;20.08;;;;;;;31.28;67.78;101071.81;5060578;28;70533;-31
2024/03/09 03:17:44;;;;;;;25.90;19.77;;;;;;;31.63;67.85;101123.75;5061211;28;65525;-31
2024/03/09 03:20:16;;;;;;;27.98;20.00;;;;;;;31.68;68.68;101125.78;5061298;28;69810;-35
2024/03/09 03:22:48;;;;;;;30.83;21.52;;;;;;;31.74;69.03;101124.94;5051105;28;67066;-32
2024/03/09 03:25:19;;;;;;;30.85;19.98;;;;;;;31.80;68.75;101129.47;5060367;28;68984;-31
2024/03/09 03:27:50;;;;;;;34.47;20.60;;;;;;;31.87;68.54;101124.81;5060901;28;65853;-30
2024/03/09 03:30:21;;;;;;;38.28;21.88;;;;;;;31.88;68.15;101131.91;5057978;28;69221;-32
2024/03/09 03:32:52;;;;;;;26.88;20.85;;;;;;;31.94;67.82;101127.53;5060671;28;65935;-32
2024/03/09 03:35:24;;;;;;;;;;;;;;;31.88;68.16;101126.50;5060303;28;69463;-33
2024/03/09 03:37:59;;;;;;;31.13;21.73;;;;;;;32.02;67.46;101125.34;5058729;28;66606;-32
2024/03/09 03:40:30;;;;;;;30.55;23.58;;;;;;;31.98;66.92;101112.44;5060287;28;70321;-35
2024/03/09 03:43:03;;;;;;;;;;;;;;;31.97;66.62;101108.06;5060892;28;65672;-32
2024/03/09 03:45:36;;;;;;;29.27;21.52;;;;;;;32.09;66.68;101103.56;5060131;28;70119;-33
2024/03/09 03:48:08;;;;;;;30.00;20.02;;;;;;;32.12;66.31;101099.59;5060433;28;66521;-33
2024/03/09 03:50:39;;;;;;;30.00;19.67;;;;;;;32.15;66.45;101097.28;5056488;28;70589;-31
2024/03/09 03:53:10;;;;;;;23.93;19.40;;;;;;;32.22;66.29;101095.31;5059877;28;66919;-32
2024/03/09 03:55:40;;;;;;;27.02;20.65;;;;;;;32.22;66.37;101070.06;5059786;28;69502;-36
2024/03/09 03:58:17;;;;;;;28.37;20.40;;;;;;;32.24;66.69;101076.91;5055413;28;65175;-33
2024/03/09 04:00:48;;;;;;;27.80;20.73;;;;;;;32.31;66.26;101081.44;5059750;28;69488;-32
2024/03/09 04:03:22;;;;;;;21.50;19.35;;;;;;;32.32;66.08;101078.50;5059331;28;66261;-32
2024/03/09 04:05:53;;;;;;;29.30;18.80;;;;;;;32.37;66.24;101066.97;5058400;28;70567;-31
2024/03/09 04:08:23;;;;;;;22.73;18.08;;;;;;;32.41;65.84;101068.19;5060335;28;66419;-31
2024/03/09 04:10:55;;;;;;;24.60;19.38;;;;;;;32.41;64.79;101057.31;5058682;28;69910;-31
2024/03/09 04:13:27;;;;;;;30.42;18.52;;;;;;;32.47;65.06;101051.00;5059797;28;66595;-32
2024/03/09 04:16:01;;;;;;;21.60;18.02;;;;;;;32.50;65.53;101047.84;5055870;28;70267;-33
2024/03/09 04:18:33;;;;;;;31.90;19.10;;;;;;;32.56;65.96;101037.94;5058190;28;65853;-33
2024/03/09 04:21:04;;;;;;;26.63;18.38;;;;;;;32.58;65.70;101033.13;5058690;28;70647;-33
2024/03/09 04:23:36;;;;;;;22.17;18.97;;;;;;;32.62;65.42;101023.44;5059180;28;67427;-34
2024/03/09 04:26:07;;;;;;;30.25;19.00;;;;;;;32.66;65.30;101019.22;5056700;28;69908;-32
2024/03/09 04:28:38;;;;;;;31.10;17.45;;;;;;;32.68;65.10;101019.81;5059355;28;66120;-32
2024/03/09 04:31:09;;;;;;;28.17;16.75;;;;;;;32.70;64.80;101020.41;5059138;28;69314;-33
2024/03/09 04:33:42;;;;;;;19.98;16.80;;;;;;;32.68;64.76;101022.53;5058086;28;66387;-35
2024/03/09 04:36:14;;;;;;;21.42;16.77;;;;;;;32.65;64.52;101002.13;5050332;28;70043;-33
2024/03/09 04:38:45;;;;;;;20.87;16.23;;;;;;;32.59;64.29;101003.00;5053404;28;66947;-32
2024/03/09 04:41:15;;;;;;;20.08;16.42;;;;;;;32.67;64.10;100994.53;5051424;28;70195;-33
2024/03/09 04:43:46;;;;;;;29.97;17.97;;;;;;;32.71;62.97;100989.50;5059835;28;67439;-32
2024/03/09 04:46:17;;;;;;;18.35;16.40;;;;;;;32.76;63.43;100986.88;5058360;28;69846;-34
2024/03/09 04:48:47;;;;;;;24.38;16.75;;;;;;;32.80;62.81;100977.25;5059805;28;66222;-33
2024/03/09 04:51:18;;;;;;;25.00;15.82;;;;;;;32.67;64.01;100939.41;5059283;28;69403;-31
2024/03/09 04:53:51;;;;;;;22.15;14.85;;;;;;;32.94;64.26;100965.09;5046367;28;66174;-33
2024/03/09 04:56:22;;;;;;;14.77;13.63;;;;;;;33.00;64.65;100962.56;5058386;28;70252;-33
2024/03/09 04:58:53;;;;;;;18.90;14.00;;;;;;;33.05;64.52;100962.69;5059700;28;66334;-31
2024/03/09 05:01:23;;;;;;;15.20;13.93;;;;;;;33.10;64.27;100954.66;5042241;28;70295;-33
2024/03/09 05:03:54;;;;;;;16.03;14.53;;;;;;;33.13;64.42;100941.44;5058988;28;65370;-31
2024/03/09 05:06:29;;;;;;;20.47;13.83;;;;;;;33.13;63.52;100927.03;5059312;28;70135;-33
2024/03/09 05:09:00;;;;;;;15.18;13.98;;;;;;;32.94;64.30;100918.91;5056936;28;65648;-33
2024/03/09 05:11:31;;;;;;;14.27;12.98;;;;;;;32.87;64.89;100917.34;5059032;28;70339;-32
2024/03/09 05:14:02;;;;;;;13.67;12.37;;;;;;;32.85;65.43;100912.19;5058477;28;65867;-32
2024/03/09 05:16:33;;;;;;;14.00;12.45;;;;;;;32.83;64.99;100892.56;5056831;28;70412;-34
2024/03/09 05:19:05;;;;;;;13.50;12.27;;;;;;;32.93;65.29;100890.09;5052890;28;66229;-31
2024/03/09 05:21:38;;;;;;;16.08;12.57;;;;;;;32.94;65.21;100880.06;5044681;28;70406;-32
2024/03/09 05:24:09;;;;;;;20.35;13.40;;;;;;;33.01;65.17;100874.53;5053339;28;65644;-34
2024/03/09 05:26:42;;;;;;;15.32;12.70;;;;;;;32.92;65.06;100877.56;5055428;28;69740;-32
2024/03/09 05:29:13;;;;;;;19.30;13.68;;;;;;;32.99;65.36;100876.63;5039100;28;66702;-30
2024/03/09 05:31:44;;;;;;;26.73;13.80;;;;;;;32.99;64.15;100876.63;5046890;28;70787;-32
2024/03/09 05:34:15;;;;;;;16.58;13.20;;;;;;;32.88;62.56;100865.53;5044406;28;65213;-31
2024/03/09 05:36:46;;;;;;;17.10;13.10;;;;;;;32.86;61.48;100873.06;5045413;28;70634;-34
2024/03/09 05:39:17;;;;;;;19.08;14.10;;;;;;;32.65;60.54;100838.31;5051859;28;66055;-33
2024/03/09 05:41:50;;;;;;;14.63;13.25;;;;;;;32.78;59.47;100848.97;5057954;28;69332;-33
2024/03/09 05:44:22;;;;;;;26.38;12.65;;;;;;;32.74;59.40;100842.34;5053073;28;65894;-32
2024/03/09 05:46:53;;;;;;;15.90;12.68;;;;;;;32.65;58.67;100828.28;5044655;28;70134;-32
2024/03/09 05:49:23;;;;;;;13.95;12.75;;;;;;;32.64;58.53;100831.22;5057226;28;65913;-32
2024/03/09 05:51:54;;;;;;;14.40;12.82;;;;;;;32.49;57.96;100799.91;5057437;28;70641;-36
2024/03/09 05:54:25;;;;;;;21.48;12.90;;;;;;;32.58;57.74;100815.88;5057287;28;66219;-32
2024/03/09 05:56:55;;;;;;;14.32;12.77;;;;;;;32.57;57.64;100809.63;5052319;28;69567;-34
2024/03/09 05:59:26;;;;;;;19.00;12.70;;;;;;;32.58;57.33;100805.84;5057481;28;66891;-32
2024/03/09 06:01:57;;;;;;;14.25;13.02;;;;;;;32.53;57.12;100802.16;5054595;28;70531;-32
2024/03/09 06:04:28;;;;;;;13.73;12.70;;;;;;;32.52;57.38;100790.47;5055904;28;66287;-32
2024/03/09 06:06:59;;;;;;;14.57;13.17;;;;;;;32.40;56.76;100782.28;5057525;28;70900;-31
2024/03/09 06:09:30;;;;;;;17.60;12.38;;;;;;;32.41;56.72;100767.66;5055909;28;65103;-33
2024/03/09 06:12:01;;;;;;;13.68;12.60;;;;;;;32.44;56.00;100766.34;5055624;28;69478;-31
2024/03/09 06:14:31;;;;;;;13.30;12.27;;;;;;;32.45;55.78;100751.69;5055999;28;66000;-31
2024/03/09 06:17:04;;;;;;;12.85;11.73;;;;;;;32.45;55.97;100747.09;5057492;28;69978;-32
2024/03/09 06:19:35;;;;;;;13.48;12.55;;;;;;;32.39;55.71;100748.03;5055036;28;65755;-32
2024/03/09 06:22:05;;;;;;;18.73;13.60;;;;;;;32.43;55.45;100749.25;5048882;28;70229;-31
2024/03/09 06:24:36;;;;;;;20.98;13.80;;;;;;;32.39;55.31;100744.50;5057130;28;65592;-33
2024/03/09 06:27:09;;;;;;;19.80;13.82;;;;;;;32.46;55.34;100737.94;5052784;28;70959;-31
2024/03/09 06:29:44;;;;;;;17.13;13.05;;;;;;;32.39;54.78;100729.03;5060319;28;65622;-32
2024/03/09 06:32:15;;;;;;;41.78;14.15;;;;;;;32.43;55.23;100732.94;5059514;28;70468;-33
2024/03/09 06:34:47;;;;;;;28.35;13.70;;;;;;;32.52;55.36;100724.50;5056454;28;66314;-32
2024/03/09 06:37:18;;;;;;;29.83;14.55;;;;;;;32.57;55.67;100721.88;5059956;28;70279;-33
2024/03/09 06:39:49;;;;;;;26.77;14.73;;;;;;;32.77;57.22;100708.78;5057012;28;66620;-33
2024/03/09 06:42:21;;;;;;;23.42;14.90;;;;;;;32.92;58.28;100709.09;5057512;28;70636;-33
2024/03/09 06:44:51;;;;;;;;;;;;;;;33.08;58.66;100699.44;5059201;28;65538;-34
2024/03/09 06:47:22;;;;;;;23.02;15.07;;;;;;;33.22;59.43;100708.13;5057822;28;70607;-32
2024/03/09 06:49:56;;;;;;;18.52;15.10;;;;;;;33.28;59.56;100696.28;5059427;28;67188;-33
2024/03/09 06:52:28;;;;;;;20.25;15.75;;;;;;;33.38;59.56;100696.50;5059941;28;69782;-32
2024/03/09 06:54:59;;;;;;;22.17;14.70;;;;;;;33.48;60.00;100695.03;5058447;28;66467;-32
2024/03/09 06:57:35;;;;;;;20.05;15.43;;;;;;;33.55;60.20;100685.72;5050303;28;69556;-33
2024/03/09 07:00:13;;;;;;;17.48;15.60;;;;;;;33.61;60.77;100689.34;5060509;28;66409;-34
2024/03/09 07:02:44;;;;;;;23.52;16.05;;;;;;;33.69;60.76;100669.09;5060710;28;70198;-32
2024/03/09 07:05:15;;;;;;;17.45;14.88;;;;;;;33.73;60.93;100671.06;5052862;28;66617;-32
2024/03/09 07:07:46;;;;;;;21.23;16.60;;;;;;;33.78;61.18;100678.50;5060998;28;70238;-32
2024/03/09 07:10:17;;;;;;;24.98;16.80;;;;;;;33.85;61.02;100672.88;5056399;28;65042;-32
2024/03/09 07:12:48;;;;;;;26.58;17.30;;;;;;;33.91;61.35;100667.31;5060691;28;70075;-32
2024/03/09 07:15:22;;;;;;;21.40;16.58;;;;;;;33.96;61.67;100667.41;5059773;28;65441;-32
2024/03/09 07:17:56;;;;;;;22.85;16.42;;;;;;;34.01;61.42;100662.03;5058577;28;70376;-32
2024/03/09 07:20:33;;;;;;;24.25;17.40;;;;;;;34.16;61.35;100668.84;5052642;28;65269;-33
2024/03/09 07:23:06;;;;;;;23.30;16.55;;;;;;;34.17;61.97;100660.41;5056688;28;70468;-33
2024/03/09 07:25:37;;;;;;;20.77;16.10;;;;;;;34.25;61.50;100656.44;5058319;28;64952;-33
2024/03/09 07:28:08;;;;;;;27.23;16.45;;;;;;;34.29;61.74;100635.00;5051310;28;70335;-33
2024/03/09 07:30:40;;;;;;;18.50;16.65;;;;;;;34.39;61.49;100637.88;5058994;28;66264;-33
2024/03/09 07:33:11;;;;;;;21.77;16.35;;;;;;;34.45;61.91;100636.88;5058247;28;69380;-33
2024/03/09 07:35:43;;;;;;;19.05;16.08;;;;;;;34.53;61.86;100636.44;5055846;28;66668;-35
2024/03/09 07:38:14;;;;;;;18.83;15.93;;;;;;;34.58;61.98;100631.09;5060488;28;70205;-32
2024/03/09 07:40:47;;;;;;;17.08;15.05;;;;;;;34.64;61.99;100638.25;5059714;28;65893;-32
2024/03/09 07:43:19;;;;;;;18.85;15.77;;;;;;;34.68;62.10;100633.94;5058944;28;70427;-33
2024/03/09 07:45:50;;;;;;;16.17;14.80;;;;;;;34.75;62.10;100627.50;5059105;28;65529;-32
2024/03/09 07:48:20;;;;;;;17.07;15.47;;;;;;;34.73;61.61;100613.28;5057568;28;70451;-34
2024/03/09 07:50:51;;;;;;;17.00;15.30;;;;;;;34.88;62.01;100621.66;5060498;28;66084;-33
2024/03/09 07:53:22;;;;;;;16.23;14.73;;;;;;;34.93;61.41;100619.00;5059515;28;69160;-31
2024/03/09 07:55:58;;;;;;;18.65;14.98;;;;;;;35.00;61.84;100619.63;5058490;28;66284;-32
2024/03/09 07:58:29;;;;;;;22.90;16.60;;;;;;;35.03;61.73;100621.84;5058947;28;69592;-33
2024/03/09 08:01:02;;;;;;;35.78;24.35;;;;;;;35.06;62.11;100624.09;5060532;28;67992;-34
2024/03/09 08:03:35;;;;;;;23.15;20.75;;;;;;;35.06;62.15;100612.38;5054827;28;71474;-32
2024/03/09 08:06:10;;;;;;;21.33;19.00;;;;;;;35.07;61.87;100623.00;5059855;28;66402;-33
2024/03/09 08:08:43;;;;;;;21.95;18.92;;;;;;;35.01;61.74;100602.19;5058290;28;70488;-33
2024/03/09 08:11:17;;;;;;;30.05;18.70;;;;;;;35.16;61.77;100622.53;5058922;28;66651;-31
2024/03/09 08:13:48;;;;;;;19.40;17.33;;;;;;;35.23;62.28;100613.09;5058443;28;69067;-32
2024/03/09 08:16:19;;;;;;;28.70;17.10;;;;;;;35.24;62.11;100613.91;5053765;28;65592;-33
2024/03/09 08:18:49;;;;;;;23.67;17.25;;;;;;;35.29;62.10;100611.25;5059791;28;70362;-34
2024/03/09 08:21:20;;;;;;;119.75;45.65;;;;;;;35.34;62.20;100614.84;5057105;28;66259;-34
2024/03/09 08:23:52;;;;;;;174.30;58.50;;;;;;;35.33;62.19;100607.75;5056872;28;69549;-34
2024/03/09 08:26:24;;;;;;;149.48;58.08;;;;;;;35.42;61.96;100610.84;5058600;28;66321;-33
2024/03/09 08:28:55;;;;;;;151.48;57.03;;;;;;;35.48;61.45;100607.06;5058836;28;69459;-33
2024/03/09 08:31:26;;;;;;;153.23;57.03;;;;;;;35.47;61.33;100605.44;5058324;28;66820;-33
2024/03/09 08:33:56;;;;;;;160.50;57.15;;;;;;;35.55;61.54;100613.16;5049286;28;70245;-34
2024/03/09 08:36:27;;;;;;;133.52;51.38;;;;;;;35.57;61.49;100608.25;5059333;28;66204;-33
2024/03/09 08:38:58;;;;;;;109.10;44.20;;;;;;;35.62;62.10;100607.50;5059445;28;70242;-33
2024/03/09 08:41:32;;;;;;;95.97;40.22;;;;;;;35.67;62.05;100604.00;5069759;28;66537;-32
2024/03/09 08:44:03;;;;;;;93.95;38.05;;;;;;;35.69;62.05;100599.09;5055474;28;70176;-33
2024/03/09 08:46:34;;;;;;;92.30;36.63;;;;;;;35.73;61.39;100595.59;5054784;28;66233;-33
2024/03/09 08:49:05;;;;;;;92.00;35.20;;;;;;;35.83;61.76;100615.84;5056124;28;69263;-33
2024/03/09 08:51:36;;;;;;;88.13;35.25;;;;;;;35.79;61.94;100601.91;5055090;28;66482;-34
2024/03/09 08:54:07;;;;;;;;;;;;;;;35.75;61.54;100608.97;5054827;28;70072;-33
2024/03/09 08:56:37;;;;;;;67.75;31.00;;;;;;;35.91;62.03;100605.31;5058497;28;66133;-36
2024/03/09 08:59:09;;;;;;;70.03;27.98;;;;;;;35.92;61.49;100598.75;5055817;28;70883;-33
2024/03/09 09:01:41;;;;;;;58.55;26.98;;;;;;;35.94;61.19;100604.78;5058405;28;65623;-32
2024/03/09 09:04:12;;;;;;;52.15;24.77;;;;;;;35.94;61.73;100596.59;5038704;28;68836;-34
2024/03/09 09:06:43;;;;;;;46.72;21.27;;;;;;;36.06;61.93;100596.41;5056698;28;66769;-33
2024/03/09 09:09:23;;;;;;;;;;;;;;;35.96;61.35;100597.13;5056360;28;69314;-33
2024/03/09 09:11:55;;;;;;;29.55;20.20;;;;;;;36.13;61.24;100593.44;5056982;28;65946;-35
2024/03/09 09:14:27;;;;;;;36.63;19.83;;;;;;;36.09;61.95;100587.69;5058732;28;70045;-35
2024/03/09 09:16:57;;;;;;;27.90;17.85;;;;;;;35.97;61.22;100557.84;5057521;28;66119;-36
2024/03/09 09:19:28;;;;;;;24.25;16.90;;;;;;;36.14;61.71;100589.66;5055741;28;69456;-33
2024/03/09 09:21:59;;;;;;;36.17;17.13;;;;;;;36.22;61.88;100591.88;5057340;28;65994;-32
2024/03/09 09:24:30;;;;;;;20.33;16.23;;;;;;;36.26;61.17;100584.78;5057692;28;71347;-33
2024/03/09 09:27:01;;;;;;;27.50;15.93;;;;;;;36.38;61.20;100593.59;5056494;28;66270;-33
2024/03/09 09:29:34;;;;;;;39.58;20.35;;;;;;;36.32;61.30;100586.47;5057707;28;69954;-32
2024/03/09 09:32:05;;;;;;;47.05;20.95;;;;;;;36.41;61.75;100594.97;5058482;28;65601;-34
2024/03/09 09:34:36;;;;;;;34.72;18.52;;;;;;;36.45;61.84;100602.38;5055614;28;70212;-33
2024/03/09 09:37:12;;;;;;;33.50;19.38;;;;;;;36.43;61.86;100604.56;5056751;28;65285;-32
2024/03/09 09:39:43;;;;;;;38.85;17.25;;;;;;;36.43;62.56;100601.81;5055372;28;69626;-41
2024/03/09 09:42:14;;;;;;;58.13;21.63;;;;;;;36.39;62.30;100603.44;5056924;28;66708;-32
2024/03/09 09:44:46;;;;;;;47.75;18.23;;;;;;;36.38;62.53;100609.97;5057314;28;70706;-32
2024/03/09 09:47:17;;;;;;;32.90;17.13;;;;;;;36.31;61.98;100603.94;5056471;28;66096;-34
2024/03/09 09:49:48;;;;;;;33.55;16.90;;;;;;;36.40;62.18;100607.81;5055649;28;70929;-32
2024/03/09 09:52:24;;;;;;;32.00;18.50;;;;;;;36.31;62.56;100617.59;5056978;28;66382;-35
2024/03/09 09:54:56;;;;;;;37.08;20.60;;;;;;;36.34;62.55;100613.53;5056681;28;70177;-32
2024/03/09 09:57:28;;;;;;;34.00;19.95;;;;;;;36.38;62.39;100618.16;5057728;28;65309;-33
2024/03/09 09:59:59;;;;;;;44.95;21.70;;;;;;;36.26;62.41;100614.84;5051417;28;70131;-33
2024/03/09 10:02:32;;;;;;;41.17;20.35;;;;;;;36.31;62.59;100628.53;5058823;28;66350;-34
2024/03/09 10:05:11;;;;;;;41.90;20.87;;;;;;;36.27;62.70;100632.84;5060781;28;70161;-34
2024/03/09 10:08:03;;;;;;;34.60;20.17;;;;;;;36.27;63.26;100638.31;5059178;28;65650;-32
2024/03/09 10:10:37;;;;;;;34.45;19.13;;;;;;;36.33;63.02;100647.38;5057321;28;69259;-33
2024/03/09 10:13:13;;;;;;;26.90;18.90;;;;;;;36.16;63.25;100620.22;5059618;28;66502;-35
2024/03/09 10:15:48;;;;;;;33.88;19.85;;;;;;;36.09;63.52;100625.09;5059631;28;69624;-33
2024/03/09 10:18:21;;;;;;;32.72;18.88;;;;;;;36.28;63.00;100656.38;5065014;28;66679;-34
2024/03/09 10:20:58;;;;;;;31.60;19.33;;;;;;;36.23;63.05;100665.34;5056959;28;69781;-32
2024/03/09 10:23:29;;;;;;;43.83;18.92;;;;;;;36.19;63.10;100647.00;5062099;28;66827;-34
2024/03/09 10:26:09;;;;;;;45.38;20.08;;;;;;;36.19;63.06;100663.38;5044005;28;70582;-33
2024/03/09 10:28:40;;;;;;;41.20;19.38;;;;;;;36.20;63.60;100659.59;5062100;28;65868;-33
2024/03/09 10:31:18;;;;;;;40.53;19.45;;;;;;;35.89;63.87;100637.47;5061073;28;69966;-32
2024/03/09 10:33:55;;;;;;;34.67;18.77;;;;;;;36.06;64.01;100672.84;5060860;28;66359;-33
2024/03/09 10:36:27;;;;;;;33.28;18.38;;;;;;;36.13;63.31;100669.91;5062413;28;70004;-35
2024/03/09 10:38:57;;;;;;;35.47;18.67;;;;;;;36.10;63.31;100675.88;5059292;28;66215;-33
2024/03/09 10:41:29;;;;;;;29.27;17.98;;;;;;;36.13;63.28;100680.81;5062066;28;69954;-32
2024/03/09 10:44:01;;;;;;;22.33;16.92;;;;;;;36.12;63.49;100679.19;5061732;28;66252;-33
2024/03/09 10:46:33;;;;;;;22.33;16.58;;;;;;;36.10;63.50;100681.34;5060762;28;70138;-33
2024/03/09 10:49:07;;;;;;;19.15;16.52;;;;;;;36.06;64.01;100680.22;5061053;28;66568;-34
2024/03/09 10:51:38;;;;;;;27.90;17.15;;;;;;;36.11;63.41;100691.16;5057996;28;70460;-32
2024/03/09 10:54:21;;;;;;;26.75;17.52;;;;;;;36.04;64.09;100694.09;5059679;28;66476;-32
2024/03/09 10:56:53;;;;;;;22.77;16.35;;;;;;;35.89;63.51;100664.78;5058056;28;70154;-32
2024/03/09 10:59:27;;;;;;;24.30;17.70;;;;;;;36.05;64.07;100700.38;5061648;28;66433;-33
2024/03/09 11:02:00;;;;;;;20.17;16.83;;;;;;;36.05;63.91;100703.97;5056737;28;70002;-32
2024/03/09 11:04:32;;;;;;;27.83;17.20;;;;;;;36.01;63.94;100703.63;5060516;28;66805;-33
2024/03/09 11:07:02;;;;;;;29.83;16.63;;;;;;;36.01;64.12;100711.00;5051828;28;70203;-32
2024/03/09 11:09:37;;;;;;;27.67;17.83;;;;;;;35.97;63.60;100716.16;5061106;28;65956;-32
2024/03/09 11:12:09;;;;;;;22.77;16.88;;;;;;;35.96;63.83;100719.97;5062796;28;69877;-32
2024/03/09 11:14:52;;;;;;;22.38;17.10;;;;;;;35.88;63.88;100723.16;5055683;28;66154;-33
2024/03/09 11:17:34;;;;;;;19.05;17.02;;;;;;;35.88;64.26;100727.78;5059012;28;69825;-32
2024/03/09 11:20:06;;;;;;;21.58;17.75;;;;;;;35.89;64.19;100743.13;5062698;28;65930;-33
2024/03/09 11:22:40;;;;;;;;;;;;;;;35.74;63.82;100741.03;5058139;28;69987;-32
2024/03/09 11:25:34;;;;;;;19.27;16.55;;;;;;;35.85;63.39;100742.78;5061172;28;65519;-33
2024/03/09 11:28:06;;;;;;;24.83;17.75;;;;;;;35.84;63.36;100754.78;5056185;28;70138;-36
2024/03/09 11:30:37;;;;;;;19.35;16.90;;;;;;;35.78;64.12;100747.63;5061042;28;66671;-33
2024/03/09 11:33:10;;;;;;;21.17;16.35;;;;;;;35.74;63.68;100771.88;5060685;28;70829;-34
2024/03/09 11:35:41;;;;;;;25.33;17.00;;;;;;;35.72;64.22;100773.22;5060036;28;66669;-32